sensor_id;sensor_type;location;lat;lon;timestamp;temperature;humidity
68450;SHT30;67758;39.572;2.652;2023-04-24T00:01:47;16.38;87.98
68450;SHT30;67758;39.572;2.652;2023-04-24T00:04:13;16.35;89.07
68450;SHT30;67758;39.572;2.652;2023-04-24T00:06:42;16.35;89.75
68450;SHT30;67758;39.572;2.652;2023-04-24T00:09:09;16.37;89.72
68450;SHT30;67758;39.572;2.652;2023-04-24T00:11:37;16.27;89.87
68450;SHT30;67758;39.572;2.652;2023-04-24T00:14:03;16.30;90.27
68450;SHT30;67758;39.572;2.652;2023-04-24T00:16:29;16.28;90.96
68450;SHT30;67758;39.572;2.652;2023-04-24T00:18:54;16.32;91.44
68450;SHT30;67758;39.572;2.652;2023-04-24T00:21:20;16.25;90.70
68450;SHT30;67758;39.572;2.652;2023-04-24T00:23:47;16.34;91.28
68450;SHT30;67758;39.572;2.652;2023-04-24T00:26:13;16.41;92.23
68450;SHT30;67758;39.572;2.652;2023-04-24T00:28:39;16.40;92.40
68450;SHT30;67758;39.572;2.652;2023-04-24T00:31:05;16.35;93.23
68450;SHT30;67758;39.572;2.652;2023-04-24T00:33:30;16.22;92.38
68450;SHT30;67758;39.572;2.652;2023-04-24T00:35:56;16.04;89.98
68450;SHT30;67758;39.572;2.652;2023-04-24T00:38:21;16.04;89.53
68450;SHT30;67758;39.572;2.652;2023-04-24T00:40:48;16.09;90.11
68450;SHT30;67758;39.572;2.652;2023-04-24T00:43:15;16.14;90.20
68450;SHT30;67758;39.572;2.652;2023-04-24T00:45:41;16.11;90.24
68450;SHT30;67758;39.572;2.652;2023-04-24T00:48:07;16.07;90.19
68450;SHT30;67758;39.572;2.652;2023-04-24T00:50:33;16.11;89.99
68450;SHT30;67758;39.572;2.652;2023-04-24T00:52:58;16.09;89.82
68450;SHT30;67758;39.572;2.652;2023-04-24T00:55:24;16.04;89.93
68450;SHT30;67758;39.572;2.652;2023-04-24T00:57:51;16.06;89.12
68450;SHT30;67758;39.572;2.652;2023-04-24T01:00:17;15.99;88.60
68450;SHT30;67758;39.572;2.652;2023-04-24T01:02:44;16.07;88.68
68450;SHT30;67758;39.572;2.652;2023-04-24T01:05:12;16.13;88.21
68450;SHT30;67758;39.572;2.652;2023-04-24T01:07:39;16.18;87.82
68450;SHT30;67758;39.572;2.652;2023-04-24T01:10:09;16.07;86.41
68450;SHT30;67758;39.572;2.652;2023-04-24T01:12:35;16.01;86.25
68450;SHT30;67758;39.572;2.652;2023-04-24T01:15:03;16.07;86.45
68450;SHT30;67758;39.572;2.652;2023-04-24T01:17:32;16.21;86.36
68450;SHT30;67758;39.572;2.652;2023-04-24T01:19:59;16.31;85.96
68450;SHT30;67758;39.572;2.652;2023-04-24T01:22:26;16.31;85.72
68450;SHT30;67758;39.572;2.652;2023-04-24T01:24:53;16.24;86.09
68450;SHT30;67758;39.572;2.652;2023-04-24T01:27:19;16.31;86.80
68450;SHT30;67758;39.572;2.652;2023-04-24T01:29:46;16.38;86.92
68450;SHT30;67758;39.572;2.652;2023-04-24T01:32:14;16.42;86.62
68450;SHT30;67758;39.572;2.652;2023-04-24T01:34:41;16.48;86.77
68450;SHT30;67758;39.572;2.652;2023-04-24T01:37:07;16.51;87.43
68450;SHT30;67758;39.572;2.652;2023-04-24T01:39:33;16.60;87.00
68450;SHT30;67758;39.572;2.652;2023-04-24T01:42:00;16.61;87.03
68450;SHT30;67758;39.572;2.652;2023-04-24T01:44:28;16.67;86.33
68450;SHT30;67758;39.572;2.652;2023-04-24T01:46:57;16.64;86.78
68450;SHT30;67758;39.572;2.652;2023-04-24T01:49:26;16.67;89.09
68450;SHT30;67758;39.572;2.652;2023-04-24T01:51:52;16.72;87.93
68450;SHT30;67758;39.572;2.652;2023-04-24T01:54:18;16.67;87.96
68450;SHT30;67758;39.572;2.652;2023-04-24T01:56:45;16.60;88.36
68450;SHT30;67758;39.572;2.652;2023-04-24T01:59:11;16.50;89.12
68450;SHT30;67758;39.572;2.652;2023-04-24T02:01:38;16.42;89.50
68450;SHT30;67758;39.572;2.652;2023-04-24T02:04:05;16.48;89.81
68450;SHT30;67758;39.572;2.652;2023-04-24T02:06:31;16.51;90.06
68450;SHT30;67758;39.572;2.652;2023-04-24T02:09:00;16.54;90.04
68450;SHT30;67758;39.572;2.652;2023-04-24T02:11:26;16.57;89.90
68450;SHT30;67758;39.572;2.652;2023-04-24T02:13:52;16.60;89.91
68450;SHT30;67758;39.572;2.652;2023-04-24T02:16:18;16.48;90.26
68450;SHT30;67758;39.572;2.652;2023-04-24T02:18:44;16.40;89.67
68450;SHT30;67758;39.572;2.652;2023-04-24T02:21:10;16.41;90.05
68450;SHT30;67758;39.572;2.652;2023-04-24T02:23:36;16.52;90.66
68450;SHT30;67758;39.572;2.652;2023-04-24T02:26:01;16.50;90.70
68450;SHT30;67758;39.572;2.652;2023-04-24T02:28:27;16.44;90.58
68450;SHT30;67758;39.572;2.652;2023-04-24T02:30:53;16.38;90.45
68450;SHT30;67758;39.572;2.652;2023-04-24T02:33:19;16.28;90.59
68450;SHT30;67758;39.572;2.652;2023-04-24T02:35:45;16.28;90.94
68450;SHT30;67758;39.572;2.652;2023-04-24T02:38:10;16.31;91.45
68450;SHT30;67758;39.572;2.652;2023-04-24T02:40:36;16.31;91.64
68450;SHT30;67758;39.572;2.652;2023-04-24T02:43:01;16.27;92.08
68450;SHT30;67758;39.572;2.652;2023-04-24T02:45:27;16.25;92.02
68450;SHT30;67758;39.572;2.652;2023-04-24T02:47:53;16.18;92.48
68450;SHT30;67758;39.572;2.652;2023-04-24T02:50:18;16.20;92.93
68450;SHT30;67758;39.572;2.652;2023-04-24T02:52:44;16.22;92.69
68450;SHT30;67758;39.572;2.652;2023-04-24T02:55:10;16.17;93.24
68450;SHT30;67758;39.572;2.652;2023-04-24T02:57:35;16.16;92.94
68450;SHT30;67758;39.572;2.652;2023-04-24T03:00:01;16.13;93.08
68450;SHT30;67758;39.572;2.652;2023-04-24T03:02:28;16.09;93.27
68450;SHT30;67758;39.572;2.652;2023-04-24T03:04:53;16.09;93.22
68450;SHT30;67758;39.572;2.652;2023-04-24T03:07:20;16.03;92.98
68450;SHT30;67758;39.572;2.652;2023-04-24T03:09:46;16.00;92.99
68450;SHT30;67758;39.572;2.652;2023-04-24T03:12:12;15.87;93.80
68450;SHT30;67758;39.572;2.652;2023-04-24T03:14:38;15.91;93.74
68450;SHT30;67758;39.572;2.652;2023-04-24T03:17:04;15.89;93.78
68450;SHT30;67758;39.572;2.652;2023-04-24T03:19:30;15.82;94.28
68450;SHT30;67758;39.572;2.652;2023-04-24T03:21:55;15.82;94.41
68450;SHT30;67758;39.572;2.652;2023-04-24T03:24:21;15.80;94.39
68450;SHT30;67758;39.572;2.652;2023-04-24T03:26:46;15.86;94.31
68450;SHT30;67758;39.572;2.652;2023-04-24T03:29:12;15.79;94.65
68450;SHT30;67758;39.572;2.652;2023-04-24T03:31:37;15.74;95.00
68450;SHT30;67758;39.572;2.652;2023-04-24T03:34:03;15.69;95.26
68450;SHT30;67758;39.572;2.652;2023-04-24T03:36:28;15.71;95.45
68450;SHT30;67758;39.572;2.652;2023-04-24T03:38:55;15.70;95.59
68450;SHT30;67758;39.572;2.652;2023-04-24T03:41:21;15.70;95.45
68450;SHT30;67758;39.572;2.652;2023-04-24T03:43:47;15.66;95.68
68450;SHT30;67758;39.572;2.652;2023-04-24T03:46:13;15.62;95.63
68450;SHT30;67758;39.572;2.652;2023-04-24T03:48:39;15.63;95.75
68450;SHT30;67758;39.572;2.652;2023-04-24T03:51:04;15.66;95.83
68450;SHT30;67758;39.572;2.652;2023-04-24T03:53:30;15.67;95.62
68450;SHT30;67758;39.572;2.652;2023-04-24T03:55:56;15.71;95.48
68450;SHT30;67758;39.572;2.652;2023-04-24T03:58:21;15.67;95.45
68450;SHT30;67758;39.572;2.652;2023-04-24T04:00:47;15.69;95.54
68450;SHT30;67758;39.572;2.652;2023-04-24T04:03:13;15.66;95.51
68450;SHT30;67758;39.572;2.652;2023-04-24T04:05:40;15.69;95.53
68450;SHT30;67758;39.572;2.652;2023-04-24T04:08:05;15.76;95.37
68450;SHT30;67758;39.572;2.652;2023-04-24T04:10:31;15.82;95.08
68450;SHT30;67758;39.572;2.652;2023-04-24T04:12:57;15.80;95.04
68450;SHT30;67758;39.572;2.652;2023-04-24T04:15:22;15.76;94.90
68450;SHT30;67758;39.572;2.652;2023-04-24T04:17:48;15.83;94.86
68450;SHT30;67758;39.572;2.652;2023-04-24T04:20:13;15.77;94.96
68450;SHT30;67758;39.572;2.652;2023-04-24T04:22:39;15.73;94.92
68450;SHT30;67758;39.572;2.652;2023-04-24T04:25:05;15.65;95.04
68450;SHT30;67758;39.572;2.652;2023-04-24T04:27:31;15.66;95.01
68450;SHT30;67758;39.572;2.652;2023-04-24T04:30:03;15.67;95.07
68450;SHT30;67758;39.572;2.652;2023-04-24T04:32:33;15.65;95.03
68450;SHT30;67758;39.572;2.652;2023-04-24T04:35:00;15.58;95.05
68450;SHT30;67758;39.572;2.652;2023-04-24T04:37:34;15.56;94.90
68450;SHT30;67758;39.572;2.652;2023-04-24T04:40:00;15.48;94.77
68450;SHT30;67758;39.572;2.652;2023-04-24T04:42:31;15.52;94.89
68450;SHT30;67758;39.572;2.652;2023-04-24T04:44:57;15.50;94.97
68450;SHT30;67758;39.572;2.652;2023-04-24T04:47:23;15.58;94.80
68450;SHT30;67758;39.572;2.652;2023-04-24T04:49:49;15.63;94.50
68450;SHT30;67758;39.572;2.652;2023-04-24T04:52:17;15.55;94.08
68450;SHT30;67758;39.572;2.652;2023-04-24T04:54:43;15.43;93.75
68450;SHT30;67758;39.572;2.652;2023-04-24T04:57:08;15.34;93.83
68450;SHT30;67758;39.572;2.652;2023-04-24T04:59:34;15.34;93.80
68450;SHT30;67758;39.572;2.652;2023-04-24T05:02:00;15.46;93.35
68450;SHT30;67758;39.572;2.652;2023-04-24T05:04:26;15.48;92.75
68450;SHT30;67758;39.572;2.652;2023-04-24T05:06:52;15.43;92.89
68450;SHT30;67758;39.572;2.652;2023-04-24T05:09:18;15.32;92.09
68450;SHT30;67758;39.572;2.652;2023-04-24T05:11:43;15.21;92.13
68450;SHT30;67758;39.572;2.652;2023-04-24T05:14:09;15.14;92.32
68450;SHT30;67758;39.572;2.652;2023-04-24T05:16:35;15.14;92.39
68450;SHT30;67758;39.572;2.652;2023-04-24T05:19:03;15.32;92.46
68450;SHT30;67758;39.572;2.652;2023-04-24T05:21:28;15.40;92.05
68450;SHT30;67758;39.572;2.652;2023-04-24T05:23:54;15.36;91.12
68450;SHT30;67758;39.572;2.652;2023-04-24T05:26:20;15.26;91.16
68450;SHT30;67758;39.572;2.652;2023-04-24T05:28:46;15.22;91.20
68450;SHT30;67758;39.572;2.652;2023-04-24T05:31:11;15.21;91.33
68450;SHT30;67758;39.572;2.652;2023-04-24T05:33:37;15.43;91.20
68450;SHT30;67758;39.572;2.652;2023-04-24T05:36:03;15.52;90.77
68450;SHT30;67758;39.572;2.652;2023-04-24T05:38:30;15.56;90.14
68450;SHT30;67758;39.572;2.652;2023-04-24T05:40:56;15.45;89.46
68450;SHT30;67758;39.572;2.652;2023-04-24T05:43:22;15.36;89.57
68450;SHT30;67758;39.572;2.652;2023-04-24T05:45:47;15.43;89.85
68450;SHT30;67758;39.572;2.652;2023-04-24T05:48:13;15.53;89.58
68450;SHT30;67758;39.572;2.652;2023-04-24T05:50:38;15.60;88.94
68450;SHT30;67758;39.572;2.652;2023-04-24T05:53:05;15.58;88.57
68450;SHT30;67758;39.572;2.652;2023-04-24T05:55:32;15.52;88.77
68450;SHT30;67758;39.572;2.652;2023-04-24T05:57:58;15.40;89.20
68450;SHT30;67758;39.572;2.652;2023-04-24T06:00:25;15.39;89.18
68450;SHT30;67758;39.572;2.652;2023-04-24T06:02:56;15.49;89.13
68450;SHT30;67758;39.572;2.652;2023-04-24T06:05:34;15.38;89.05
68450;SHT30;67758;39.572;2.652;2023-04-24T06:08:01;15.35;89.20
68450;SHT30;67758;39.572;2.652;2023-04-24T06:10:27;15.36;89.25
68450;SHT30;67758;39.572;2.652;2023-04-24T06:12:53;15.56;89.17
68450;SHT30;67758;39.572;2.652;2023-04-24T06:15:21;15.65;88.83
68450;SHT30;67758;39.572;2.652;2023-04-24T06:17:47;15.63;88.34
68450;SHT30;67758;39.572;2.652;2023-04-24T06:20:13;15.62;88.38
68450;SHT30;67758;39.572;2.652;2023-04-24T06:22:39;15.70;88.08
68450;SHT30;67758;39.572;2.652;2023-04-24T06:25:06;15.89;88.18
68450;SHT30;67758;39.572;2.652;2023-04-24T06:27:32;15.90;87.58
68450;SHT30;67758;39.572;2.652;2023-04-24T06:29:58;15.89;87.62
68450;SHT30;67758;39.572;2.652;2023-04-24T06:32:24;15.97;87.52
68450;SHT30;67758;39.572;2.652;2023-04-24T06:34:53;16.01;87.65
68450;SHT30;67758;39.572;2.652;2023-04-24T06:37:20;16.09;87.50
68450;SHT30;67758;39.572;2.652;2023-04-24T06:39:46;16.22;87.19
68450;SHT30;67758;39.572;2.652;2023-04-24T06:42:12;16.32;87.01
68450;SHT30;67758;39.572;2.652;2023-04-24T06:44:37;16.58;86.41
68450;SHT30;67758;39.572;2.652;2023-04-24T06:47:10;16.71;86.02
68450;SHT30;67758;39.572;2.652;2023-04-24T06:49:36;16.91;85.14
68450;SHT30;67758;39.572;2.652;2023-04-24T06:52:02;16.98;84.89
68450;SHT30;67758;39.572;2.652;2023-04-24T06:54:28;17.16;84.46
68450;SHT30;67758;39.572;2.652;2023-04-24T06:56:54;17.34;83.92
68450;SHT30;67758;39.572;2.652;2023-04-24T06:59:20;17.80;83.19
68450;SHT30;67758;39.572;2.652;2023-04-24T07:01:46;18.04;81.36
68450;SHT30;67758;39.572;2.652;2023-04-24T07:04:12;18.26;80.50
68450;SHT30;67758;39.572;2.652;2023-04-24T07:06:38;18.36;79.56
68450;SHT30;67758;39.572;2.652;2023-04-24T07:09:04;18.46;79.04
68450;SHT30;67758;39.572;2.652;2023-04-24T07:11:30;18.56;78.57
68450;SHT30;67758;39.572;2.652;2023-04-24T07:13:56;18.60;78.19
68450;SHT30;67758;39.572;2.652;2023-04-24T07:16:22;18.66;78.03
68450;SHT30;67758;39.572;2.652;2023-04-24T07:18:48;18.77;77.99
68450;SHT30;67758;39.572;2.652;2023-04-24T07:21:13;18.85;77.63
68450;SHT30;67758;39.572;2.652;2023-04-24T07:23:39;18.85;78.04
68450;SHT30;67758;39.572;2.652;2023-04-24T07:26:06;18.77;78.30
68450;SHT30;67758;39.572;2.652;2023-04-24T07:28:32;18.80;78.41
68450;SHT30;67758;39.572;2.652;2023-04-24T07:30:58;18.87;78.29
68450;SHT30;67758;39.572;2.652;2023-04-24T07:33:28;18.99;77.92
68450;SHT30;67758;39.572;2.652;2023-04-24T07:35:53;19.02;77.88
68450;SHT30;67758;39.572;2.652;2023-04-24T07:38:19;19.00;77.98
68450;SHT30;67758;39.572;2.652;2023-04-24T07:40:48;18.97;78.23
68450;SHT30;67758;39.572;2.652;2023-04-24T07:43:19;18.97;78.63
68450;SHT30;67758;39.572;2.652;2023-04-24T07:45:45;18.89;79.36
68450;SHT30;67758;39.572;2.652;2023-04-24T07:48:11;18.90;79.49
68450;SHT30;67758;39.572;2.652;2023-04-24T07:50:39;18.93;79.39
68450;SHT30;67758;39.572;2.652;2023-04-24T07:53:04;18.86;79.66
68450;SHT30;67758;39.572;2.652;2023-04-24T07:55:30;18.87;79.88
68450;SHT30;67758;39.572;2.652;2023-04-24T07:57:55;18.92;79.93
68450;SHT30;67758;39.572;2.652;2023-04-24T08:00:21;18.90;80.13
68450;SHT30;67758;39.572;2.652;2023-04-24T08:02:47;18.90;80.18
68450;SHT30;67758;39.572;2.652;2023-04-24T08:05:12;18.69;79.80
68450;SHT30;67758;39.572;2.652;2023-04-24T08:07:38;18.67;80.14
68450;SHT30;67758;39.572;2.652;2023-04-24T08:10:04;18.65;80.19
68450;SHT30;67758;39.572;2.652;2023-04-24T08:12:30;18.56;80.28
68450;SHT30;67758;39.572;2.652;2023-04-24T08:14:56;18.53;80.37
68450;SHT30;67758;39.572;2.652;2023-04-24T08:17:22;18.59;80.54
68450;SHT30;67758;39.572;2.652;2023-04-24T08:19:47;18.63;80.61
68450;SHT30;67758;39.572;2.652;2023-04-24T08:22:14;18.72;80.48
68450;SHT30;67758;39.572;2.652;2023-04-24T08:24:40;18.82;80.08
68450;SHT30;67758;39.572;2.652;2023-04-24T08:27:06;18.86;79.48
68450;SHT30;67758;39.572;2.652;2023-04-24T08:29:31;18.90;79.38
68450;SHT30;67758;39.572;2.652;2023-04-24T08:31:57;18.87;79.58
68450;SHT30;67758;39.572;2.652;2023-04-24T08:34:23;18.99;79.42
68450;SHT30;67758;39.572;2.652;2023-04-24T08:36:48;19.06;78.70
68450;SHT30;67758;39.572;2.652;2023-04-24T08:39:14;19.24;78.80
68450;SHT30;67758;39.572;2.652;2023-04-24T08:41:44;19.28;78.36
68450;SHT30;67758;39.572;2.652;2023-04-24T08:44:11;19.34;77.87
68450;SHT30;67758;39.572;2.652;2023-04-24T08:46:39;19.43;77.85
68450;SHT30;67758;39.572;2.652;2023-04-24T08:49:06;19.37;77.44
68450;SHT30;67758;39.572;2.652;2023-04-24T08:51:31;19.35;77.97
68450;SHT30;67758;39.572;2.652;2023-04-24T08:53:57;19.40;77.50
68450;SHT30;67758;39.572;2.652;2023-04-24T08:56:23;19.47;77.06
68450;SHT30;67758;39.572;2.652;2023-04-24T08:58:53;19.57;76.46
68450;SHT30;67758;39.572;2.652;2023-04-24T09:01:20;19.71;76.68
68450;SHT30;67758;39.572;2.652;2023-04-24T09:03:48;19.74;76.52
68450;SHT30;67758;39.572;2.652;2023-04-24T09:06:14;19.81;76.92
68450;SHT30;67758;39.572;2.652;2023-04-24T09:08:42;19.88;77.09
68450;SHT30;67758;39.572;2.652;2023-04-24T09:11:10;19.85;77.02
68450;SHT30;67758;39.572;2.652;2023-04-24T09:13:45;19.88;76.54
68450;SHT30;67758;39.572;2.652;2023-04-24T09:16:13;19.98;75.32
68450;SHT30;67758;39.572;2.652;2023-04-24T09:18:39;20.05;76.37
68450;SHT30;67758;39.572;2.652;2023-04-24T09:21:09;19.93;77.39
68450;SHT30;67758;39.572;2.652;2023-04-24T09:23:39;20.00;77.39
68450;SHT30;67758;39.572;2.652;2023-04-24T09:26:10;20.22;76.73
68450;SHT30;67758;39.572;2.652;2023-04-24T09:28:44;20.40;75.51
68450;SHT30;67758;39.572;2.652;2023-04-24T09:31:14;20.50;74.85
68450;SHT30;67758;39.572;2.652;2023-04-24T09:34:04;20.63;75.51
68450;SHT30;67758;39.572;2.652;2023-04-24T09:36:41;20.51;76.66
68450;SHT30;67758;39.572;2.652;2023-04-24T09:39:11;20.54;75.26
68450;SHT30;67758;39.572;2.652;2023-04-24T09:41:47;20.67;74.03
68450;SHT30;67758;39.572;2.652;2023-04-24T09:44:15;20.60;74.26
68450;SHT30;67758;39.572;2.652;2023-04-24T09:46:45;20.47;74.48
68450;SHT30;67758;39.572;2.652;2023-04-24T09:49:23;20.42;74.34
68450;SHT30;67758;39.572;2.652;2023-04-24T09:51:51;20.33;75.33
68450;SHT30;67758;39.572;2.652;2023-04-24T09:54:20;20.37;76.17
68450;SHT30;67758;39.572;2.652;2023-04-24T09:56:49;20.29;76.10
68450;SHT30;67758;39.572;2.652;2023-04-24T09:59:19;20.42;76.53
68450;SHT30;67758;39.572;2.652;2023-04-24T10:01:45;20.40;76.17
68450;SHT30;67758;39.572;2.652;2023-04-24T10:04:25;20.56;76.32
68450;SHT30;67758;39.572;2.652;2023-04-24T10:06:53;20.61;75.83
68450;SHT30;67758;39.572;2.652;2023-04-24T10:09:21;20.67;76.29
68450;SHT30;67758;39.572;2.652;2023-04-24T10:11:53;20.74;76.29
68450;SHT30;67758;39.572;2.652;2023-04-24T10:14:21;20.87;76.86
68450;SHT30;67758;39.572;2.652;2023-04-24T10:16:49;21.04;74.29
68450;SHT30;67758;39.572;2.652;2023-04-24T10:19:17;21.21;74.45
68450;SHT30;67758;39.572;2.652;2023-04-24T10:21:46;21.00;75.59
68450;SHT30;67758;39.572;2.652;2023-04-24T10:24:17;20.83;76.77
68450;SHT30;67758;39.572;2.652;2023-04-24T10:26:45;20.80;77.33
68450;SHT30;67758;39.572;2.652;2023-04-24T10:29:16;20.90;76.75
68450;SHT30;67758;39.572;2.652;2023-04-24T10:31:42;21.02;76.95
68450;SHT30;67758;39.572;2.652;2023-04-24T10:34:12;21.10;75.91
68450;SHT30;67758;39.572;2.652;2023-04-24T10:36:42;21.24;76.54
68450;SHT30;67758;39.572;2.652;2023-04-24T10:39:12;21.46;76.68
68450;SHT30;67758;39.572;2.652;2023-04-24T10:41:40;21.41;76.39
68450;SHT30;67758;39.572;2.652;2023-04-24T10:44:11;21.61;75.90
68450;SHT30;67758;39.572;2.652;2023-04-24T10:46:39;21.69;75.96
68450;SHT30;67758;39.572;2.652;2023-04-24T10:49:06;22.26;74.36
68450;SHT30;67758;39.572;2.652;2023-04-24T10:51:53;23.66;69.51
68450;SHT30;67758;39.572;2.652;2023-04-24T10:54:30;24.49;67.40
68450;SHT30;67758;39.572;2.652;2023-04-24T10:59:44;25.97;63.13
68450;SHT30;67758;39.572;2.652;2023-04-24T11:02:10;26.48;61.38
68450;SHT30;67758;39.572;2.652;2023-04-24T11:04:35;26.75;60.42
68450;SHT30;67758;39.572;2.652;2023-04-24T11:07:04;26.71;60.27
68450;SHT30;67758;39.572;2.652;2023-04-24T11:09:31;26.38;61.28
68450;SHT30;67758;39.572;2.652;2023-04-24T11:17:34;26.39;60.95
68450;SHT30;67758;39.572;2.652;2023-04-24T11:20:07;26.75;60.13
68450;SHT30;67758;39.572;2.652;2023-04-24T11:22:35;26.78;60.22
68450;SHT30;67758;39.572;2.652;2023-04-24T11:25:05;26.38;61.59
68450;SHT30;67758;39.572;2.652;2023-04-24T11:27:40;26.09;62.27
68450;SHT30;67758;39.572;2.652;2023-04-24T11:30:06;26.32;61.88
68450;SHT30;67758;39.572;2.652;2023-04-24T11:35:00;26.21;62.01
68450;SHT30;67758;39.572;2.652;2023-04-24T11:37:28;26.18;61.80
68450;SHT30;67758;39.572;2.652;2023-04-24T11:39:56;26.39;61.45
68450;SHT30;67758;39.572;2.652;2023-04-24T11:42:22;26.63;60.97
68450;SHT30;67758;39.572;2.652;2023-04-24T11:44:49;26.42;61.25
68450;SHT30;67758;39.572;2.652;2023-04-24T11:47:17;26.59;60.28
68450;SHT30;67758;39.572;2.652;2023-04-24T11:49:43;26.65;59.89
68450;SHT30;67758;39.572;2.652;2023-04-24T11:52:08;26.73;59.42
68450;SHT30;67758;39.572;2.652;2023-04-24T11:54:36;26.72;58.92
68450;SHT30;67758;39.572;2.652;2023-04-24T11:57:05;26.93;58.62
68450;SHT30;67758;39.572;2.652;2023-04-24T11:59:37;27.06;57.81
68450;SHT30;67758;39.572;2.652;2023-04-24T12:02:03;27.51;56.54
68450;SHT30;67758;39.572;2.652;2023-04-24T12:04:41;27.68;55.30
68450;SHT30;67758;39.572;2.652;2023-04-24T12:07:06;27.62;54.49
68450;SHT30;67758;39.572;2.652;2023-04-24T12:09:41;28.23;52.71
68450;SHT30;67758;39.572;2.652;2023-04-24T12:12:07;28.59;51.52
68450;SHT30;67758;39.572;2.652;2023-04-24T12:14:33;28.86;49.94
68450;SHT30;67758;39.572;2.652;2023-04-24T12:17:06;29.15;49.24
68450;SHT30;67758;39.572;2.652;2023-04-24T12:19:32;28.79;50.99
68450;SHT30;67758;39.572;2.652;2023-04-24T12:22:03;28.89;49.34
68450;SHT30;67758;39.572;2.652;2023-04-24T12:24:30;28.96;48.56
68450;SHT30;67758;39.572;2.652;2023-04-24T12:26:57;28.96;48.67
68450;SHT30;67758;39.572;2.652;2023-04-24T12:29:24;29.11;48.57
68450;SHT30;67758;39.572;2.652;2023-04-24T12:31:51;29.04;47.99
68450;SHT30;67758;39.572;2.652;2023-04-24T12:34:18;29.22;46.93
68450;SHT30;67758;39.572;2.652;2023-04-24T12:36:44;28.57;47.74
68450;SHT30;67758;39.572;2.652;2023-04-24T12:39:18;28.33;48.94
68450;SHT30;67758;39.572;2.652;2023-04-24T12:41:57;28.52;48.39
68450;SHT30;67758;39.572;2.652;2023-04-24T12:44:32;28.35;48.69
68450;SHT30;67758;39.572;2.652;2023-04-24T12:47:00;28.18;49.22
68450;SHT30;67758;39.572;2.652;2023-04-24T12:49:27;28.16;48.89
68450;SHT30;67758;39.572;2.652;2023-04-24T12:51:53;28.67;47.56
68450;SHT30;67758;39.572;2.652;2023-04-24T12:54:19;28.77;47.09
68450;SHT30;67758;39.572;2.652;2023-04-24T12:56:44;28.25;48.69
68450;SHT30;67758;39.572;2.652;2023-04-24T12:59:10;28.10;48.65
68450;SHT30;67758;39.572;2.652;2023-04-24T13:01:35;28.42;48.00
68450;SHT30;67758;39.572;2.652;2023-04-24T13:04:01;28.56;48.29
68450;SHT30;67758;39.572;2.652;2023-04-24T13:06:27;28.38;48.33
68450;SHT30;67758;39.572;2.652;2023-04-24T13:08:52;28.50;48.05
68450;SHT30;67758;39.572;2.652;2023-04-24T13:11:20;28.25;48.10
68450;SHT30;67758;39.572;2.652;2023-04-24T13:13:47;28.49;47.84
68450;SHT30;67758;39.572;2.652;2023-04-24T13:16:13;28.42;47.58
68450;SHT30;67758;39.572;2.652;2023-04-24T13:18:38;28.70;47.75
68450;SHT30;67758;39.572;2.652;2023-04-24T13:21:04;28.40;46.91
68450;SHT30;67758;39.572;2.652;2023-04-24T13:23:29;28.43;47.49
68450;SHT30;67758;39.572;2.652;2023-04-24T13:25:55;28.40;47.53
68450;SHT30;67758;39.572;2.652;2023-04-24T13:28:26;28.12;47.68
68450;SHT30;67758;39.572;2.652;2023-04-24T13:30:54;28.49;47.21
68450;SHT30;67758;39.572;2.652;2023-04-24T13:33:20;28.94;46.42
68450;SHT30;67758;39.572;2.652;2023-04-24T13:35:45;28.90;45.78
68450;SHT30;67758;39.572;2.652;2023-04-24T13:38:11;27.78;47.10
68450;SHT30;67758;39.572;2.652;2023-04-24T13:40:36;27.68;47.29
68450;SHT30;67758;39.572;2.652;2023-04-24T13:43:02;27.62;46.60
68450;SHT30;67758;39.572;2.652;2023-04-24T13:45:28;27.75;46.20
68450;SHT30;67758;39.572;2.652;2023-04-24T13:47:53;27.84;45.40
68450;SHT30;67758;39.572;2.652;2023-04-24T13:50:20;27.75;45.43
68450;SHT30;67758;39.572;2.652;2023-04-24T13:52:46;28.02;44.48
68450;SHT30;67758;39.572;2.652;2023-04-24T13:55:12;27.58;45.41
68450;SHT30;67758;39.572;2.652;2023-04-24T13:57:37;27.59;46.57
68450;SHT30;67758;39.572;2.652;2023-04-24T14:00:04;27.33;46.89
68450;SHT30;67758;39.572;2.652;2023-04-24T14:02:31;27.11;48.29
68450;SHT30;67758;39.572;2.652;2023-04-24T14:04:57;26.95;46.88
68450;SHT30;67758;39.572;2.652;2023-04-24T14:07:23;27.37;45.86
68450;SHT30;67758;39.572;2.652;2023-04-24T14:09:48;27.47;45.53
68450;SHT30;67758;39.572;2.652;2023-04-24T14:12:15;27.27;46.03
68450;SHT30;67758;39.572;2.652;2023-04-24T14:14:43;26.97;46.13
68450;SHT30;67758;39.572;2.652;2023-04-24T14:17:09;26.95;46.32
68450;SHT30;67758;39.572;2.652;2023-04-24T14:19:35;27.04;45.81
68450;SHT30;67758;39.572;2.652;2023-04-24T14:22:01;27.26;46.07
68450;SHT30;67758;39.572;2.652;2023-04-24T14:24:26;27.14;45.48
68450;SHT30;67758;39.572;2.652;2023-04-24T14:26:52;27.33;46.28
68450;SHT30;67758;39.572;2.652;2023-04-24T14:29:17;27.34;48.75
68450;SHT30;67758;39.572;2.652;2023-04-24T14:31:44;28.10;50.20
68450;SHT30;67758;39.572;2.652;2023-04-24T14:34:12;28.49;49.19
68450;SHT30;67758;39.572;2.652;2023-04-24T14:36:38;29.12;45.33
68450;SHT30;67758;39.572;2.652;2023-04-24T14:39:04;29.44;43.31
68450;SHT30;67758;39.572;2.652;2023-04-24T14:41:33;29.32;43.54
68450;SHT30;67758;39.572;2.652;2023-04-24T14:44:04;29.65;44.29
68450;SHT30;67758;39.572;2.652;2023-04-24T14:46:30;29.22;46.58
68450;SHT30;67758;39.572;2.652;2023-04-24T14:48:56;29.45;49.06
68450;SHT30;67758;39.572;2.652;2023-04-24T14:51:22;29.31;52.01
68450;SHT30;67758;39.572;2.652;2023-04-24T14:53:48;28.87;53.35
68450;SHT30;67758;39.572;2.652;2023-04-24T14:56:14;28.22;54.51
68450;SHT30;67758;39.572;2.652;2023-04-24T14:58:40;28.26;54.90
68450;SHT30;67758;39.572;2.652;2023-04-24T15:01:06;27.99;56.26
68450;SHT30;67758;39.572;2.652;2023-04-24T15:03:31;27.51;57.17
68450;SHT30;67758;39.572;2.652;2023-04-24T15:05:57;26.86;58.88
68450;SHT30;67758;39.572;2.652;2023-04-24T15:08:23;26.97;58.53
68450;SHT30;67758;39.572;2.652;2023-04-24T15:10:49;27.24;58.01
68450;SHT30;67758;39.572;2.652;2023-04-24T15:13:15;27.51;57.64
68450;SHT30;67758;39.572;2.652;2023-04-24T15:15:40;27.24;58.30
68450;SHT30;67758;39.572;2.652;2023-04-24T15:18:07;26.97;58.92
68450;SHT30;67758;39.572;2.652;2023-04-24T15:20:33;26.69;59.30
68450;SHT30;67758;39.572;2.652;2023-04-24T15:23:00;26.57;59.68
68450;SHT30;67758;39.572;2.652;2023-04-24T15:25:29;26.82;59.65
68450;SHT30;67758;39.572;2.652;2023-04-24T15:27:57;26.52;60.05
68450;SHT30;67758;39.572;2.652;2023-04-24T15:30:26;25.95;61.90
68450;SHT30;67758;39.572;2.652;2023-04-24T15:32:54;26.06;61.55
68450;SHT30;67758;39.572;2.652;2023-04-24T15:35:19;26.08;61.71
68450;SHT30;67758;39.572;2.652;2023-04-24T15:37:46;25.88;62.16
68450;SHT30;67758;39.572;2.652;2023-04-24T15:40:12;25.97;62.44